createdAt,value
2023-05-11T00:00:28.153Z,533.00
2023-05-11T00:01:28.168Z,533.00
2023-05-11T00:02:28.169Z,534.00
2023-05-11T00:03:28.207Z,535.00
2023-05-11T00:04:28.148Z,537.00
2023-05-11T00:05:28.097Z,536.00
2023-05-11T00:06:28.099Z,539.00
2023-05-11T00:07:28.107Z,538.00
2023-05-11T00:08:28.098Z,538.00
2023-05-11T00:09:28.088Z,536.00
2023-05-11T00:10:28.101Z,535.00
2023-05-11T00:11:28.096Z,536.00
2023-05-11T00:12:28.163Z,534.00
2023-05-11T00:13:28.150Z,537.00
2023-05-11T00:14:28.204Z,537.00
2023-05-11T00:15:28.216Z,535.00
2023-05-11T00:16:28.297Z,533.00
2023-05-11T00:17:28.308Z,534.00
2023-05-11T00:18:28.366Z,533.00
2023-05-11T00:19:28.339Z,532.00
2023-05-11T00:20:28.387Z,534.00
2023-05-11T00:21:28.397Z,535.00
2023-05-11T00:22:28.419Z,535.00
2023-05-11T00:23:28.473Z,535.00
2023-05-11T00:24:28.554Z,536.00
2023-05-11T00:25:28.562Z,535.00
2023-05-11T00:26:28.567Z,535.00
2023-05-11T00:27:28.596Z,534.00
2023-05-11T00:28:28.625Z,532.00
2023-05-11T00:29:28.656Z,532.00
2023-05-11T00:30:28.689Z,533.00
2023-05-11T00:31:30.270Z,531.00
2023-05-11T00:32:28.814Z,529.00
2023-05-11T00:33:28.809Z,528.00
2023-05-11T00:34:28.860Z,528.00
2023-05-11T00:35:28.842Z,529.00
2023-05-11T00:36:29.005Z,528.00
2023-05-11T00:37:28.930Z,528.00
2023-05-11T00:38:28.981Z,530.00
2023-05-11T00:39:28.976Z,533.00
2023-05-11T00:40:29.050Z,533.00
2023-05-11T00:41:29.055Z,534.00
2023-05-11T00:42:29.093Z,535.00
2023-05-11T00:43:29.148Z,536.00
2023-05-11T00:44:29.157Z,539.00
2023-05-11T00:45:29.175Z,538.00
2023-05-11T00:46:29.222Z,538.00
2023-05-11T00:47:29.263Z,536.00
2023-05-11T00:48:29.286Z,534.00
2023-05-11T00:49:29.300Z,533.00
2023-05-11T00:50:29.321Z,533.00
2023-05-11T00:51:29.424Z,532.00
2023-05-11T00:52:29.417Z,534.00
2023-05-11T00:53:29.522Z,536.00
2023-05-11T00:54:29.486Z,533.00
2023-05-11T00:55:29.535Z,532.00
2023-05-11T00:56:29.545Z,529.00
2023-05-11T00:57:29.617Z,527.00
2023-05-11T00:58:29.589Z,525.00
2023-05-11T00:59:29.658Z,524.00
2023-05-11T01:00:29.730Z,526.00
2023-05-11T01:01:29.743Z,525.00
2023-05-11T01:02:29.874Z,526.00
2023-05-11T01:03:29.883Z,526.00
2023-05-11T01:04:29.811Z,525.00
2023-05-11T01:05:29.871Z,526.00
2023-05-11T01:06:29.848Z,526.00
2023-05-11T01:07:29.895Z,526.00
2023-05-11T01:08:29.946Z,527.00
2023-05-11T01:09:29.955Z,527.00
2023-05-11T01:10:30.016Z,529.00
2023-05-11T01:11:30.105Z,529.00
2023-05-11T01:12:30.091Z,529.00
2023-05-11T01:13:30.138Z,530.00
2023-05-11T01:14:30.135Z,530.00
2023-05-11T01:15:30.181Z,531.00
2023-05-11T01:16:30.232Z,529.00
2023-05-11T01:17:30.307Z,528.00
2023-05-11T01:18:30.356Z,527.00
2023-05-11T01:19:30.320Z,526.00
2023-05-11T01:20:30.370Z,526.00
2023-05-11T01:21:30.401Z,526.00
2023-05-11T01:22:30.405Z,526.00
2023-05-11T01:23:30.436Z,526.00
2023-05-11T01:24:30.471Z,528.00
2023-05-11T01:25:30.521Z,526.00
2023-05-11T01:26:30.531Z,527.00
2023-05-11T01:27:30.576Z,530.00
2023-05-11T01:28:30.590Z,530.00
2023-05-11T01:29:30.662Z,530.00
2023-05-11T01:30:30.660Z,532.00
2023-05-11T01:31:30.838Z,531.00
2023-05-11T01:32:30.780Z,528.00
2023-05-11T01:33:30.777Z,526.00
2023-05-11T01:34:30.862Z,525.00
2023-05-11T01:35:30.859Z,521.00
2023-05-11T01:36:30.903Z,521.00
2023-05-11T01:37:30.913Z,519.00
2023-05-11T01:38:30.964Z,520.00
2023-05-11T01:39:31.001Z,521.00
2023-05-11T01:40:31.040Z,523.00
2023-05-11T01:41:31.045Z,523.00
2023-05-11T01:42:31.084Z,524.00
2023-05-11T01:43:31.097Z,525.00
2023-05-11T01:44:31.173Z,524.00
2023-05-11T01:45:31.185Z,526.00
2023-05-11T01:46:31.282Z,521.00
2023-05-11T01:47:31.258Z,520.00
2023-05-11T01:48:31.287Z,518.00
2023-05-11T01:49:31.332Z,517.00
2023-05-11T01:50:31.347Z,519.00
2023-05-11T01:51:31.391Z,518.00
2023-05-11T01:52:31.432Z,516.00
2023-05-11T01:53:31.470Z,516.00
2023-05-11T01:54:31.486Z,516.00
2023-05-11T01:55:31.518Z,515.00
2023-05-11T01:56:31.553Z,517.00
2023-05-11T01:57:31.602Z,517.00
2023-05-11T01:58:31.612Z,519.00
2023-05-11T01:59:31.643Z,518.00
2023-05-11T02:00:31.737Z,516.00
2023-05-11T02:01:31.731Z,517.00
2023-05-11T02:02:31.879Z,517.00
2023-05-11T02:03:31.945Z,516.00
2023-05-11T02:04:31.800Z,517.00
2023-05-11T02:05:31.858Z,519.00
2023-05-11T02:06:31.855Z,520.00
2023-05-11T02:07:31.940Z,517.00
2023-05-11T02:08:31.950Z,515.00
2023-05-11T02:09:31.985Z,515.00
2023-05-11T02:10:32.026Z,514.00
2023-05-11T02:11:32.027Z,515.00
2023-05-11T02:12:32.076Z,515.00
2023-05-11T02:13:32.104Z,516.00
2023-05-11T02:14:32.129Z,518.00
2023-05-11T02:15:32.145Z,518.00
2023-05-11T02:16:32.222Z,516.00
2023-05-11T02:17:32.245Z,516.00
2023-05-11T02:18:32.318Z,515.00
2023-05-11T02:19:32.309Z,515.00
2023-05-11T02:20:32.336Z,515.00
2023-05-11T02:21:32.357Z,514.00
2023-05-11T02:22:32.366Z,512.00
2023-05-11T02:23:32.409Z,513.00
2023-05-11T02:24:32.419Z,513.00
2023-05-11T02:25:32.480Z,513.00
2023-05-11T02:26:32.531Z,511.00
2023-05-11T02:27:32.539Z,510.00
2023-05-11T02:28:32.562Z,512.00
2023-05-11T02:29:32.602Z,513.00
2023-05-11T02:30:32.636Z,511.00
2023-05-11T02:31:32.743Z,513.00
2023-05-11T02:32:32.753Z,516.00
2023-05-11T02:33:32.715Z,519.00
2023-05-11T02:34:32.748Z,519.00
2023-05-11T02:35:32.796Z,517.00
2023-05-11T02:36:32.841Z,519.00
2023-05-11T02:37:32.851Z,517.00
2023-05-11T02:38:32.895Z,518.00
2023-05-11T02:39:32.914Z,515.00
2023-05-11T02:40:32.966Z,515.00
2023-05-11T02:41:32.967Z,514.00
2023-05-11T02:42:33.014Z,516.00
2023-05-11T02:43:33.046Z,515.00
2023-05-11T02:44:33.063Z,516.00
2023-05-11T02:45:33.107Z,516.00
2023-05-11T02:46:33.165Z,515.00
2023-05-11T02:47:33.249Z,517.00
2023-05-11T02:48:33.201Z,515.00
2023-05-11T02:49:33.242Z,516.00
2023-05-11T02:50:33.234Z,517.00
2023-05-11T02:51:33.300Z,518.00
2023-05-11T02:52:33.362Z,517.00
2023-05-11T02:53:33.604Z,517.00
2023-05-11T02:54:33.380Z,515.00
2023-05-11T02:55:33.416Z,514.00
2023-05-11T02:56:33.485Z,514.00
2023-05-11T02:57:33.496Z,514.00
2023-05-11T02:58:33.529Z,515.00
2023-05-11T02:59:33.544Z,514.00
2023-05-11T03:00:33.597Z,516.00
2023-05-11T03:01:33.702Z,518.00
2023-05-11T03:02:33.796Z,515.00
2023-05-11T03:03:33.844Z,517.00
2023-05-11T03:04:33.717Z,518.00
2023-05-11T03:05:33.739Z,518.00
2023-05-11T03:06:33.774Z,517.00
2023-05-11T03:07:33.826Z,515.00
2023-05-11T03:08:33.823Z,516.00
2023-05-11T03:09:33.883Z,515.00
2023-05-11T03:10:33.904Z,516.00
2023-05-11T03:11:33.949Z,514.00
2023-05-11T03:12:33.952Z,512.00
2023-05-11T03:13:34.011Z,512.00
2023-05-11T03:14:34.038Z,511.00
2023-05-11T03:15:34.065Z,510.00
2023-05-11T03:16:34.114Z,509.00
2023-05-11T03:17:34.180Z,507.00
2023-05-11T03:18:34.184Z,505.00
2023-05-11T03:19:34.155Z,506.00
2023-05-11T03:20:34.218Z,506.00
2023-05-11T03:21:34.242Z,506.00
2023-05-11T03:22:34.285Z,504.00
2023-05-11T03:23:34.331Z,502.00
2023-05-11T03:24:34.343Z,504.00
2023-05-11T03:25:34.359Z,505.00
2023-05-11T03:26:34.402Z,506.00
2023-05-11T03:27:34.442Z,507.00
2023-05-11T03:28:34.445Z,508.00
2023-05-11T03:29:34.501Z,508.00
2023-05-11T03:30:34.531Z,508.00
2023-05-11T03:31:34.587Z,509.00
2023-05-11T03:32:34.634Z,509.00
2023-05-11T03:33:34.608Z,508.00
2023-05-11T03:34:34.635Z,506.00
2023-05-11T03:35:34.689Z,505.00
2023-05-11T03:36:34.706Z,506.00
2023-05-11T03:37:34.713Z,505.00
2023-05-11T03:38:34.752Z,505.00
2023-05-11T03:39:34.820Z,506.00
2023-05-11T03:40:34.855Z,507.00
2023-05-11T03:41:34.847Z,505.00
2023-05-11T03:42:34.929Z,504.00
2023-05-11T03:43:34.950Z,504.00
2023-05-11T03:44:34.989Z,507.00
2023-05-11T03:45:35.009Z,508.00
2023-05-11T03:46:35.197Z,509.00
2023-05-11T03:47:35.068Z,508.00
2023-05-11T03:48:35.095Z,505.00
2023-05-11T03:49:35.124Z,504.00
2023-05-11T03:50:35.177Z,503.00
2023-05-11T03:51:35.187Z,502.00
2023-05-11T03:52:35.196Z,500.00
2023-05-11T03:53:35.234Z,501.00
2023-05-11T03:54:35.268Z,502.00
2023-05-11T03:55:35.302Z,503.00
2023-05-11T03:56:35.332Z,504.00
2023-05-11T03:57:35.382Z,505.00
2023-05-11T03:58:35.393Z,506.00
2023-05-11T03:59:35.443Z,506.00
2023-05-11T04:00:35.499Z,503.00
2023-05-11T04:01:35.520Z,501.00
2023-05-11T04:02:35.560Z,500.00
2023-05-11T04:03:35.726Z,501.00
2023-05-11T04:04:35.628Z,503.00
2023-05-11T04:05:35.651Z,504.00
2023-05-11T04:06:35.638Z,505.00
2023-05-11T04:07:35.684Z,505.00
2023-05-11T04:08:35.716Z,504.00
2023-05-11T04:09:35.769Z,505.00
2023-05-11T04:10:35.806Z,506.00
2023-05-11T04:11:35.827Z,506.00
2023-05-11T04:12:35.869Z,506.00
2023-05-11T04:13:35.890Z,505.00
2023-05-11T04:14:35.923Z,506.00
2023-05-11T04:15:35.964Z,507.00
2023-05-11T04:16:36.064Z,504.00
2023-05-11T04:17:36.100Z,503.00
2023-05-11T04:18:36.105Z,504.00
2023-05-11T04:19:36.138Z,504.00
2023-05-11T04:20:36.187Z,505.00
2023-05-11T04:21:36.192Z,506.00
2023-05-11T04:22:36.225Z,505.00
2023-05-11T04:23:36.254Z,507.00
2023-05-11T04:24:36.289Z,506.00
2023-05-11T04:25:36.352Z,504.00
2023-05-11T04:26:36.379Z,504.00
2023-05-11T04:27:36.421Z,505.00
2023-05-11T04:28:36.469Z,502.00
2023-05-11T04:29:36.514Z,501.00
2023-05-11T04:30:36.499Z,504.00
2023-05-11T04:31:36.591Z,501.00
2023-05-11T04:32:36.690Z,500.00
2023-05-11T04:33:36.641Z,500.00
2023-05-11T04:34:36.714Z,500.00
2023-05-11T04:35:36.712Z,501.00
2023-05-11T04:36:36.732Z,501.00
2023-05-11T04:37:36.822Z,502.00
2023-05-11T04:38:36.841Z,502.00
2023-05-11T04:39:36.829Z,503.00
2023-05-11T04:40:36.884Z,499.00
2023-05-11T04:41:36.895Z,498.00
2023-05-11T04:42:36.962Z,496.00
2023-05-11T04:43:36.953Z,495.00
2023-05-11T04:44:37.025Z,498.00
2023-05-11T04:45:37.062Z,499.00
2023-05-11T04:46:37.084Z,501.00
2023-05-11T04:47:37.129Z,500.00
2023-05-11T04:48:37.110Z,501.00
2023-05-11T04:49:37.184Z,499.00
2023-05-11T04:50:37.242Z,499.00
2023-05-11T04:51:37.239Z,498.00
2023-05-11T04:52:37.284Z,496.00
2023-05-11T04:53:37.305Z,494.00
2023-05-11T04:54:37.339Z,496.00
2023-05-11T04:55:37.379Z,499.00
2023-05-11T04:56:37.395Z,499.00
2023-05-11T04:57:37.421Z,498.00
2023-05-11T04:58:37.425Z,498.00
2023-05-11T04:59:37.560Z,498.00
2023-05-11T05:00:37.470Z,497.00
2023-05-11T05:01:37.789Z,496.00
2023-05-11T05:02:37.548Z,496.00
2023-05-11T05:03:37.594Z,494.00
2023-05-11T05:04:37.597Z,495.00
2023-05-11T05:05:37.609Z,496.00
2023-05-11T05:06:37.672Z,496.00
2023-05-11T05:07:37.699Z,496.00
2023-05-11T05:08:37.722Z,497.00
2023-05-11T05:09:37.777Z,499.00
2023-05-11T05:10:37.776Z,498.00
2023-05-11T05:11:37.796Z,498.00
2023-05-11T05:12:37.847Z,498.00
2023-05-11T05:13:37.864Z,497.00
2023-05-11T05:14:37.861Z,498.00
2023-05-11T05:15:37.881Z,497.00
2023-05-11T05:16:37.983Z,494.00
2023-05-11T05:17:37.974Z,495.00
2023-05-11T05:18:37.983Z,495.00
2023-05-11T05:19:37.962Z,496.00
2023-05-11T05:20:38.020Z,499.00
2023-05-11T05:21:38.010Z,497.00
2023-05-11T05:22:38.008Z,496.00
2023-05-11T05:23:38.024Z,494.00
2023-05-11T05:24:38.053Z,493.00
2023-05-11T05:25:38.080Z,494.00
2023-05-11T05:26:38.110Z,494.00
2023-05-11T05:27:38.092Z,496.00
2023-05-11T05:28:38.135Z,500.00
2023-05-11T05:29:38.135Z,499.00
2023-05-11T05:30:38.179Z,498.00
2023-05-11T05:31:38.180Z,498.00
2023-05-11T05:32:38.206Z,497.00
2023-05-11T05:33:38.212Z,502.00
2023-05-11T05:34:38.259Z,506.00
2023-05-11T05:35:38.443Z,510.00
2023-05-11T05:36:38.313Z,512.00
2023-05-11T05:37:38.305Z,520.00
2023-05-11T05:38:38.291Z,527.00
2023-05-11T05:39:38.337Z,523.00
2023-05-11T05:40:38.397Z,531.00
2023-05-11T05:41:38.958Z,534.00
2023-05-11T05:42:38.513Z,533.00
2023-05-11T05:43:38.574Z,521.00
2023-05-11T05:44:38.624Z,517.00
2023-05-11T05:45:45.753Z,513.00
2023-05-11T05:46:39.044Z,538.00
2023-05-11T05:47:38.654Z,584.00
2023-05-11T05:48:38.681Z,583.00
2023-05-11T05:49:38.610Z,569.00
2023-05-11T05:50:38.629Z,555.00
2023-05-11T05:51:38.997Z,542.00
2023-05-11T05:52:38.587Z,536.00
2023-05-11T05:53:38.625Z,535.00
2023-05-11T05:54:38.582Z,534.00
2023-05-11T05:55:38.589Z,533.00
2023-05-11T05:56:38.587Z,532.00
2023-05-11T05:57:38.574Z,530.00
2023-05-11T05:58:38.677Z,528.00
2023-05-11T05:59:38.598Z,521.00
2023-05-11T06:00:38.577Z,519.00
2023-05-11T06:01:38.583Z,511.00
2023-05-11T06:02:38.708Z,505.00
2023-05-11T06:03:38.689Z,504.00
2023-05-11T06:04:38.551Z,510.00
2023-05-11T06:05:38.531Z,538.00
2023-05-11T06:06:39.040Z,535.00
2023-05-11T06:07:38.547Z,536.00
2023-05-11T06:08:38.637Z,538.00
2023-05-11T06:09:39.212Z,544.00
2023-05-11T06:10:38.622Z,551.00
2023-05-11T06:11:38.464Z,547.00
2023-05-11T06:12:38.445Z,538.00
2023-05-11T06:13:38.404Z,532.00
2023-05-11T06:14:38.415Z,534.00
2023-05-11T06:15:39.109Z,534.00
2023-05-11T06:16:38.537Z,531.00
2023-05-11T06:17:38.466Z,527.00
2023-05-11T06:18:39.043Z,528.00
2023-05-11T06:19:38.344Z,530.00
2023-05-11T06:20:38.340Z,535.00
2023-05-11T06:21:38.380Z,539.00
2023-05-11T06:22:38.348Z,542.00
2023-05-11T06:23:38.344Z,544.00
2023-05-11T06:24:38.366Z,550.00
2023-05-11T06:25:38.321Z,555.00
2023-05-11T06:26:38.339Z,558.00
2023-05-11T06:27:38.307Z,551.00
2023-05-11T06:28:38.358Z,543.00
2023-05-11T06:29:38.307Z,543.00
2023-05-11T06:30:38.361Z,553.00
2023-05-11T06:31:38.432Z,553.00
2023-05-11T06:32:38.378Z,553.00
2023-05-11T06:33:38.373Z,558.00
2023-05-11T06:34:38.432Z,574.00
2023-05-11T06:35:38.450Z,603.00
2023-05-11T06:36:38.441Z,611.00
2023-05-11T06:37:38.529Z,620.00
2023-05-11T06:38:38.478Z,609.00
2023-05-11T06:39:38.535Z,599.00
2023-05-11T06:40:38.599Z,598.00
2023-05-11T06:41:38.641Z,592.00
2023-05-11T06:42:39.525Z,588.00
2023-05-11T06:43:38.699Z,602.00
2023-05-11T06:44:38.756Z,630.00
2023-05-11T06:45:38.810Z,654.00
2023-05-11T06:46:38.825Z,683.00
2023-05-11T06:47:38.871Z,667.00
2023-05-11T06:48:38.912Z,672.00
2023-05-11T06:49:38.935Z,657.00
2023-05-11T06:50:39.030Z,673.00
2023-05-11T06:51:38.972Z,663.00
2023-05-11T06:52:39.194Z,652.00
2023-05-11T06:53:39.088Z,640.00
2023-05-11T06:54:39.141Z,617.00
2023-05-11T06:55:39.202Z,634.00
2023-05-11T06:56:39.157Z,626.00
2023-05-11T06:57:40.090Z,615.00
2023-05-11T06:58:39.220Z,652.00
2023-05-11T06:59:39.230Z,670.00
2023-05-11T07:00:39.289Z,661.00
2023-05-11T07:01:39.503Z,664.00
2023-05-11T07:02:39.532Z,661.00
2023-05-11T07:03:39.308Z,665.00
2023-05-11T07:04:39.352Z,682.00
2023-05-11T07:05:39.286Z,649.00
2023-05-11T07:06:39.335Z,638.00
2023-05-11T07:07:39.334Z,635.00
2023-05-11T07:08:39.347Z,629.00
2023-05-11T07:09:40.105Z,625.00
2023-05-11T07:10:39.517Z,630.00
2023-05-11T07:11:39.523Z,647.00
2023-05-11T07:12:39.561Z,655.00
2023-05-11T07:13:39.585Z,667.00
2023-05-11T07:14:39.579Z,673.00
2023-05-11T07:15:39.625Z,671.00
2023-05-11T07:16:39.648Z,668.00
2023-05-11T07:17:39.686Z,659.00
2023-05-11T07:18:39.694Z,666.00
2023-05-11T07:19:39.733Z,644.00
2023-05-11T07:20:39.693Z,642.00
2023-05-11T07:21:39.756Z,664.00
2023-05-11T07:22:39.744Z,683.00
2023-05-11T07:23:39.809Z,681.00
2023-05-11T07:24:39.778Z,689.00
2023-05-11T07:25:39.807Z,682.00
2023-05-11T07:26:39.872Z,688.00
2023-05-11T07:27:39.877Z,658.00
2023-05-11T07:28:39.881Z,675.00
2023-05-11T07:29:39.941Z,681.00
2023-05-11T07:30:39.945Z,762.00
2023-05-11T07:31:40.071Z,729.00
2023-05-11T07:32:40.089Z,734.00
2023-05-11T07:33:40.004Z,715.00
2023-05-11T07:34:40.030Z,696.00
2023-05-11T07:35:40.030Z,679.00
2023-05-11T07:36:40.146Z,674.00
2023-05-11T07:37:40.497Z,677.00
2023-05-11T07:38:40.123Z,707.00
2023-05-11T07:39:40.170Z,737.00
2023-05-11T07:40:40.179Z,732.00
2023-05-11T07:41:41.167Z,700.00
2023-05-11T07:42:40.531Z,681.00
2023-05-11T07:43:40.149Z,693.00
2023-05-11T07:44:40.108Z,757.00
2023-05-11T07:45:40.102Z,782.00
2023-05-11T07:46:40.185Z,1017.00
2023-05-11T07:47:40.170Z,904.00
2023-05-11T07:48:40.052Z,841.00
2023-05-11T07:49:43.891Z,781.00
2023-05-11T07:50:40.063Z,794.00
2023-05-11T07:51:40.048Z,792.00
2023-05-11T07:52:40.460Z,802.00
2023-05-11T07:53:40.064Z,724.00
2023-05-11T07:54:40.229Z,782.00
2023-05-11T07:55:40.005Z,795.00
2023-05-11T07:56:40.036Z,796.00
2023-05-11T07:57:40.033Z,783.00
2023-05-11T07:58:40.042Z,795.00
2023-05-11T07:59:39.995Z,787.00
2023-05-11T08:00:39.972Z,772.00
2023-05-11T08:01:40.146Z,784.00
2023-05-11T08:02:40.109Z,777.00
2023-05-11T08:03:40.045Z,814.00
2023-05-11T08:04:39.987Z,822.00
2023-05-11T08:05:40.056Z,778.00
2023-05-11T08:06:39.960Z,808.00
2023-05-11T08:07:41.510Z,819.00
2023-05-11T08:08:39.948Z,764.00
2023-05-11T08:09:40.064Z,776.00
2023-05-11T08:10:39.920Z,793.00
2023-05-11T08:11:39.917Z,801.00
2023-05-11T08:12:39.942Z,804.00
2023-05-11T08:13:40.034Z,828.00
2023-05-11T08:14:39.962Z,840.00
2023-05-11T08:15:39.966Z,813.00
2023-05-11T08:16:40.125Z,915.00
2023-05-11T08:17:40.038Z,943.00
2023-05-11T08:18:40.052Z,949.00
2023-05-11T08:19:40.028Z,952.00
2023-05-11T08:20:40.159Z,949.00
2023-05-11T08:21:40.162Z,959.00
2023-05-11T08:22:40.170Z,974.00
2023-05-11T08:23:40.162Z,981.00
2023-05-11T08:24:40.233Z,984.00
2023-05-11T08:25:40.276Z,1009.00
2023-05-11T08:26:40.364Z,1055.00
2023-05-11T08:27:40.415Z,1076.00
2023-05-11T08:28:40.461Z,1087.00
2023-05-11T08:29:40.516Z,1102.00
2023-05-11T08:30:40.586Z,1113.00
2023-05-11T08:31:40.656Z,1122.00
2023-05-11T08:32:54.033Z,1102.00
2023-05-11T08:33:42.175Z,1122.00
2023-05-11T08:34:40.731Z,997.00
2023-05-11T08:35:40.655Z,1024.00
2023-05-11T08:36:40.985Z,809.00
2023-05-11T08:37:40.637Z,732.00
2023-05-11T08:38:40.635Z,721.00
2023-05-11T08:39:46.712Z,704.00
2023-05-11T08:40:41.834Z,722.00
2023-05-11T08:41:40.944Z,795.00
2023-05-11T08:42:40.915Z,728.00
2023-05-11T08:43:40.877Z,776.00
2023-05-11T08:44:40.939Z,714.00
2023-05-11T08:45:41.089Z,717.00
2023-05-11T08:46:42.636Z,759.00
2023-05-11T08:47:40.738Z,644.00
2023-05-11T08:48:41.546Z,723.00
2023-05-11T08:49:40.570Z,702.00
2023-05-11T08:50:40.563Z,791.00
2023-05-11T08:51:40.573Z,875.00
2023-05-11T08:52:40.589Z,920.00
2023-05-11T08:53:40.552Z,921.00
2023-05-11T08:54:40.540Z,1050.00
2023-05-11T08:55:40.499Z,872.00
2023-05-11T08:56:40.520Z,797.00
2023-05-11T08:57:40.532Z,709.00
2023-05-11T08:58:40.508Z,699.00
2023-05-11T08:59:40.528Z,707.00
2023-05-11T09:00:40.593Z,715.00
2023-05-11T09:01:40.727Z,722.00
2023-05-11T09:02:40.688Z,714.00
2023-05-11T09:03:41.060Z,713.00
2023-05-11T09:04:40.650Z,713.00
2023-05-11T09:05:40.739Z,662.00
2023-05-11T09:06:40.696Z,636.00
2023-05-11T09:07:41.524Z,632.00
2023-05-11T09:08:40.712Z,638.00
2023-05-11T09:09:40.766Z,639.00
2023-05-11T09:10:40.719Z,634.00
2023-05-11T09:11:41.180Z,629.00
2023-05-11T09:12:40.715Z,630.00
2023-05-11T09:13:41.167Z,631.00
2023-05-11T09:14:40.857Z,637.00
2023-05-11T09:15:40.919Z,643.00
2023-05-11T09:16:40.833Z,650.00
2023-05-11T09:17:40.810Z,669.00
2023-05-11T09:18:40.949Z,686.00
2023-05-11T09:19:40.816Z,691.00
2023-05-11T09:20:40.883Z,675.00
2023-05-11T09:21:40.885Z,661.00
2023-05-11T09:22:40.994Z,646.00
2023-05-11T09:23:42.133Z,631.00
2023-05-11T09:24:40.913Z,625.00
2023-05-11T09:25:40.933Z,633.00
2023-05-11T09:26:40.902Z,635.00
2023-05-11T09:27:41.633Z,626.00
2023-05-11T09:28:46.086Z,625.00
2023-05-11T09:29:41.875Z,629.00
2023-05-11T09:30:40.872Z,628.00
2023-05-11T09:31:40.904Z,699.00
2023-05-11T09:32:40.895Z,670.00
2023-05-11T09:33:40.941Z,678.00
2023-05-11T09:34:43.119Z,666.00
2023-05-11T09:35:41.097Z,658.00
2023-05-11T09:36:41.101Z,660.00
2023-05-11T09:37:41.229Z,656.00
2023-05-11T09:38:41.305Z,721.00
2023-05-11T09:39:53.270Z,795.00
2023-05-11T09:40:43.219Z,780.00
2023-05-11T09:41:41.334Z,774.00
2023-05-11T09:42:41.304Z,834.00
2023-05-11T09:43:41.338Z,802.00
2023-05-11T09:44:41.249Z,925.00
2023-05-11T09:45:41.284Z,940.00
2023-05-11T09:46:41.373Z,911.00
2023-05-11T09:47:41.430Z,837.00
2023-05-11T09:48:41.432Z,819.00
2023-05-11T09:49:41.440Z,810.00
2023-05-11T09:50:41.499Z,809.00
2023-05-11T09:51:41.514Z,806.00
2023-05-11T09:52:41.558Z,898.00
2023-05-11T09:53:41.592Z,884.00
2023-05-11T09:54:42.109Z,892.00
2023-05-11T09:55:41.605Z,905.00
2023-05-11T09:56:41.664Z,902.00
2023-05-11T09:57:41.642Z,855.00
2023-05-11T09:58:41.606Z,898.00
2023-05-11T09:59:41.633Z,887.00
2023-05-11T10:00:41.769Z,907.00
2023-05-11T10:01:41.934Z,902.00
2023-05-11T10:02:41.882Z,909.00
2023-05-11T10:03:41.984Z,929.00
2023-05-11T10:04:42.129Z,990.00
2023-05-11T10:05:41.808Z,989.00
2023-05-11T10:06:41.910Z,977.00
2023-05-11T10:07:41.924Z,998.00
2023-05-11T10:08:41.953Z,1050.00
2023-05-11T10:09:41.926Z,1059.00
2023-05-11T10:10:42.006Z,1069.00
2023-05-11T10:11:42.018Z,1116.00
2023-05-11T10:12:42.065Z,1138.00
2023-05-11T10:13:42.198Z,1137.00
2023-05-11T10:14:42.213Z,1138.00
2023-05-11T10:15:42.240Z,1138.00
2023-05-11T10:16:42.415Z,1136.00
2023-05-11T10:17:42.380Z,1141.00
2023-05-11T10:18:42.462Z,1141.00
2023-05-11T10:19:42.490Z,1148.00
2023-05-11T10:20:42.519Z,1149.00
2023-05-11T10:21:42.602Z,1144.00
2023-05-11T10:22:42.657Z,1133.00
2023-05-11T10:23:42.714Z,1127.00
2023-05-11T10:24:42.868Z,1121.00
2023-05-11T10:25:42.794Z,1116.00
2023-05-11T10:26:42.850Z,1109.00
2023-05-11T10:27:42.893Z,1096.00
2023-05-11T10:28:42.948Z,1090.00
2023-05-11T10:29:42.990Z,1076.00
2023-05-11T10:30:43.035Z,1065.00
2023-05-11T10:31:43.092Z,1058.00
2023-05-11T10:32:43.095Z,1053.00
2023-05-11T10:33:43.159Z,1046.00
2023-05-11T10:34:43.579Z,1037.00
2023-05-11T10:35:43.196Z,1031.00
2023-05-11T10:36:43.261Z,963.00
2023-05-11T10:37:43.335Z,1013.00
2023-05-11T10:38:43.365Z,1080.00
2023-05-11T10:39:43.581Z,1118.00
2023-05-11T10:40:43.419Z,1130.00
2023-05-11T10:41:43.453Z,1135.00
2023-05-11T10:42:43.492Z,1140.00
2023-05-11T10:43:43.577Z,1139.00
2023-05-11T10:44:43.615Z,1151.00
2023-05-11T10:45:43.688Z,1208.00
2023-05-11T10:46:43.638Z,1241.00
2023-05-11T10:47:43.667Z,1257.00
2023-05-11T10:48:43.717Z,1271.00
2023-05-11T10:49:43.723Z,1281.00
2023-05-11T10:50:43.758Z,1287.00
2023-05-11T10:51:43.821Z,1292.00
2023-05-11T10:52:43.810Z,1303.00
2023-05-11T10:53:43.853Z,1315.00
2023-05-11T10:54:44.159Z,1327.00
2023-05-11T10:55:46.812Z,1335.00
2023-05-11T10:56:43.862Z,1340.00
2023-05-11T10:57:43.854Z,1348.00
2023-05-11T10:58:43.966Z,1358.00
2023-05-11T10:59:44.119Z,1364.00
2023-05-11T11:00:43.883Z,1369.00
2023-05-11T11:01:43.917Z,1379.00
2023-05-11T11:02:43.848Z,1388.00
2023-05-11T11:03:43.799Z,1399.00
2023-05-11T11:04:43.816Z,1407.00
2023-05-11T11:05:43.883Z,1409.00
2023-05-11T11:06:43.784Z,1412.00
2023-05-11T11:07:43.772Z,1413.00
2023-05-11T11:08:43.784Z,1419.00
2023-05-11T11:09:44.659Z,1430.00
2023-05-11T11:10:43.742Z,1437.00
2023-05-11T11:11:43.766Z,1440.00
2023-05-11T11:12:43.772Z,1449.00
2023-05-11T11:13:43.733Z,1453.00
2023-05-11T11:14:43.719Z,1453.00
2023-05-11T11:15:43.719Z,1452.00
2023-05-11T11:16:43.746Z,1453.00
2023-05-11T11:17:43.705Z,1457.00
2023-05-11T11:18:43.720Z,1465.00
2023-05-11T11:19:43.654Z,1471.00
2023-05-11T11:20:43.714Z,1473.00
2023-05-11T11:21:43.705Z,1471.00
2023-05-11T11:22:43.745Z,1464.00
2023-05-11T11:23:44.885Z,1468.00
2023-05-11T11:24:43.842Z,1477.00
2023-05-11T11:25:51.146Z,1493.00
2023-05-11T11:26:43.604Z,1513.00
2023-05-11T11:27:43.615Z,1522.00
2023-05-11T11:28:43.608Z,1525.00
2023-05-11T11:29:43.624Z,1508.00
2023-05-11T11:30:43.631Z,1272.00
2023-05-11T11:31:43.624Z,1281.00
2023-05-11T11:32:46.098Z,1197.00
2023-05-11T11:33:43.580Z,1117.00
2023-05-11T11:34:43.571Z,1205.00
2023-05-11T11:35:43.705Z,1220.00
2023-05-11T11:36:43.568Z,1231.00
2023-05-11T11:37:43.589Z,1233.00
2023-05-11T11:38:43.589Z,1083.00
2023-05-11T11:39:43.549Z,1138.00
2023-05-11T11:41:43.541Z,1090.00
2023-05-11T11:42:43.553Z,1159.00
2023-05-11T11:43:43.517Z,1164.00
2023-05-11T11:44:43.528Z,1154.00
2023-05-11T11:45:43.523Z,1150.00
2023-05-11T11:46:43.565Z,1152.00
2023-05-11T11:47:43.572Z,1148.00
2023-05-11T11:48:43.510Z,1138.00
2023-05-11T11:49:43.473Z,1115.00
2023-05-11T11:50:43.461Z,1042.00
2023-05-11T11:51:43.470Z,1070.00
2023-05-11T11:52:43.435Z,1072.00
2023-05-11T11:53:43.447Z,1069.00
2023-05-11T11:54:43.423Z,1014.00
2023-05-11T11:55:43.410Z,1031.00
2023-05-11T11:56:43.414Z,1035.00
2023-05-11T11:57:43.404Z,1042.00
2023-05-11T11:58:43.437Z,1063.00
2023-05-11T11:59:43.419Z,1062.00
2023-05-11T12:00:43.395Z,1054.00
2023-05-11T12:01:43.364Z,1051.00
2023-05-11T12:02:43.458Z,1044.00
2023-05-11T12:03:43.526Z,1048.00
2023-05-11T12:04:43.380Z,1050.00
2023-05-11T12:05:43.368Z,964.00
2023-05-11T12:06:43.330Z,1000.00
2023-05-11T12:07:43.344Z,950.00
2023-05-11T12:08:43.378Z,994.00
2023-05-11T12:09:43.376Z,1007.00
2023-05-11T12:10:43.304Z,1006.00
2023-05-11T12:11:43.348Z,1010.00
2023-05-11T12:12:43.312Z,1013.00
2023-05-11T12:13:43.313Z,1011.00
2023-05-11T12:14:43.261Z,999.00
2023-05-11T12:15:43.316Z,985.00
2023-05-11T12:16:43.320Z,966.00
2023-05-11T12:17:43.301Z,961.00
2023-05-11T12:18:43.340Z,955.00
2023-05-11T12:19:43.300Z,945.00
2023-05-11T12:20:43.378Z,937.00
2023-05-11T12:21:43.436Z,931.00
2023-05-11T12:22:43.484Z,899.00
2023-05-11T12:23:43.553Z,907.00
2023-05-11T12:24:43.641Z,915.00
2023-05-11T12:25:43.700Z,915.00